sensor_id;sensor_type;location;lat;lon;timestamp;pressure;altitude;pressure_sealevel;temperature;humidity
7170;BME280;3626;42.656;23.312;2022-07-23T00:00:04;94815.22;;;20.16;60.92
7170;BME280;3626;42.656;23.312;2022-07-23T00:00:11;94823.88;;;20.16;61.08
7170;BME280;3626;42.656;23.312;2022-07-23T00:00:18;94819.66;;;20.15;61.10
7170;BME280;3626;42.656;23.312;2022-07-23T00:00:25;94821.50;;;20.15;60.94
7170;BME280;3626;42.656;23.312;2022-07-23T00:00:31;94824.13;;;20.15;60.84
7170;BME280;3626;42.656;23.312;2022-07-23T00:00:37;94822.53;;;20.14;61.03
7170;BME280;3626;42.656;23.312;2022-07-23T00:00:42;94824.13;;;20.15;60.89
7170;BME280;3626;42.656;23.312;2022-07-23T00:00:48;94826.50;;;20.16;60.90
7170;BME280;3626;42.656;23.312;2022-07-23T00:00:54;94830.94;;;20.16;60.78
7170;BME280;3626;42.656;23.312;2022-07-23T00:01:00;94822.28;;;20.15;60.78
7170;BME280;3626;42.656;23.312;2022-07-23T00:01:06;94818.88;;;20.15;60.85
7170;BME280;3626;42.656;23.312;2022-07-23T00:01:11;94819.66;;;20.15;60.83
7170;BME280;3626;42.656;23.312;2022-07-23T00:01:17;94816.25;;;20.15;60.75
7170;BME280;3626;42.656;23.312;2022-07-23T00:01:23;94820.69;;;20.14;60.65
7170;BME280;3626;42.656;23.312;2022-07-23T00:01:29;94830.38;;;20.14;60.65
7170;BME280;3626;42.656;23.312;2022-07-23T00:01:35;94830.38;;;20.14;60.69
7170;BME280;3626;42.656;23.312;2022-07-23T00:01:42;94829.56;;;20.13;60.66
7170;BME280;3626;42.656;23.312;2022-07-23T00:01:47;94826.13;;;20.13;60.60
7170;BME280;3626;42.656;23.312;2022-07-23T00:01:53;94825.34;;;20.12;60.64
7170;BME280;3626;42.656;23.312;2022-07-23T00:01:59;94828.75;;;20.13;60.54
7170;BME280;3626;42.656;23.312;2022-07-23T00:02:04;94829.56;;;20.13;60.56
7170;BME280;3626;42.656;23.312;2022-07-23T00:02:12;94820.91;;;20.13;60.54
7170;BME280;3626;42.656;23.312;2022-07-23T00:02:17;94828.75;;;20.13;60.27
7170;BME280;3626;42.656;23.312;2022-07-23T00:02:23;94832.41;;;20.12;60.23
7170;BME280;3626;42.656;23.312;2022-07-23T00:02:29;94827.16;;;20.12;60.20
7170;BME280;3626;42.656;23.312;2022-07-23T00:02:35;94825.56;;;20.11;60.07
7170;BME280;3626;42.656;23.312;2022-07-23T00:02:40;94827.16;;;20.12;60.20
7170;BME280;3626;42.656;23.312;2022-07-23T00:02:46;94822.97;;;20.11;59.88
7170;BME280;3626;42.656;23.312;2022-07-23T00:02:52;94829.00;;;20.11;59.89
7170;BME280;3626;42.656;23.312;2022-07-23T00:02:59;94822.16;;;20.10;59.90
7170;BME280;3626;42.656;23.312;2022-07-23T00:03:05;94828.19;;;20.11;59.91
7170;BME280;3626;42.656;23.312;2022-07-23T00:03:11;94824.53;;;20.12;59.80
7170;BME280;3626;42.656;23.312;2022-07-23T00:03:17;94830.03;;;20.10;59.68
7170;BME280;3626;42.656;23.312;2022-07-23T00:03:23;94823.19;;;20.09;59.55
7170;BME280;3626;42.656;23.312;2022-07-23T00:03:29;94824.97;;;20.09;59.75
7170;BME280;3626;42.656;23.312;2022-07-23T00:03:34;94820.75;;;20.08;59.57
7170;BME280;3626;42.656;23.312;2022-07-23T00:03:40;94828.44;;;20.09;59.58
7170;BME280;3626;42.656;23.312;2022-07-23T00:03:46;94821.56;;;20.08;59.53
7170;BME280;3626;42.656;23.312;2022-07-23T00:03:52;94827.59;;;20.09;59.40
7170;BME280;3626;42.656;23.312;2022-07-23T00:03:59;94827.84;;;20.07;59.56
7170;BME280;3626;42.656;23.312;2022-07-23T00:04:05;94827.59;;;20.09;59.35
7170;BME280;3626;42.656;23.312;2022-07-23T00:04:11;94824.41;;;20.07;59.35
7170;BME280;3626;42.656;23.312;2022-07-23T00:04:16;94826.00;;;20.08;59.35
7170;BME280;3626;42.656;23.312;2022-07-23T00:04:22;94825.44;;;20.06;59.28
7170;BME280;3626;42.656;23.312;2022-07-23T00:04:28;94823.63;;;20.06;59.44
7170;BME280;3626;42.656;23.312;2022-07-23T00:04:34;94829.66;;;20.07;59.54
7170;BME280;3626;42.656;23.312;2022-07-23T00:04:40;94829.66;;;20.07;59.27
7170;BME280;3626;42.656;23.312;2022-07-23T00:04:46;94822.81;;;20.06;59.37
7170;BME280;3626;42.656;23.312;2022-07-23T00:04:52;94822.81;;;20.06;59.31
7170;BME280;3626;42.656;23.312;2022-07-23T00:04:58;94831.69;;;20.05;59.38
7170;BME280;3626;42.656;23.312;2022-07-23T00:05:04;94823.81;;;20.05;59.53
7170;BME280;3626;42.656;23.312;2022-07-23T00:05:10;94831.69;;;20.05;59.35
7170;BME280;3626;42.656;23.312;2022-07-23T00:05:16;94824.84;;;20.04;59.44
7170;BME280;3626;42.656;23.312;2022-07-23T00:05:21;94821.44;;;20.03;59.39
7170;BME280;3626;42.656;23.312;2022-07-23T00:05:27;94825.06;;;20.02;59.37
7170;BME280;3626;42.656;23.312;2022-07-23T00:05:33;94821.66;;;20.02;59.41
7170;BME280;3626;42.656;23.312;2022-07-23T00:05:39;94827.69;;;20.02;59.32
7170;BME280;3626;42.656;23.312;2022-07-23T00:05:45;94826.09;;;20.01;59.54
7170;BME280;3626;42.656;23.312;2022-07-23T00:05:50;94827.69;;;20.02;59.34
7170;BME280;3626;42.656;23.312;2022-07-23T00:05:56;94828.50;;;20.03;59.49
7170;BME280;3626;42.656;23.312;2022-07-23T00:06:02;94827.91;;;20.01;59.41
7170;BME280;3626;42.656;23.312;2022-07-23T00:06:09;94826.09;;;20.01;59.47
7170;BME280;3626;42.656;23.312;2022-07-23T00:06:15;94821.06;;;20.00;59.42
7170;BME280;3626;42.656;23.312;2022-07-23T00:06:21;94826.31;;;20.00;59.56
7170;BME280;3626;42.656;23.312;2022-07-23T00:06:27;94825.28;;;20.01;59.42
7170;BME280;3626;42.656;23.312;2022-07-23T00:06:33;94831.53;;;20.00;59.49
7170;BME280;3626;42.656;23.312;2022-07-23T00:06:39;94829.72;;;20.00;59.52
7170;BME280;3626;42.656;23.312;2022-07-23T00:06:44;94826.31;;;20.00;59.42
7170;BME280;3626;42.656;23.312;2022-07-23T00:06:50;94829.94;;;19.98;59.55
7170;BME280;3626;42.656;23.312;2022-07-23T00:06:56;94830.75;;;19.99;59.40
7170;BME280;3626;42.656;23.312;2022-07-23T00:07:02;94827.31;;;19.98;59.48
7170;BME280;3626;42.656;23.312;2022-07-23T00:07:07;94826.53;;;19.98;59.32
7170;BME280;3626;42.656;23.312;2022-07-23T00:07:13;94822.09;;;19.98;59.26
7170;BME280;3626;42.656;23.312;2022-07-23T00:07:19;94826.31;;;20.00;59.23
7170;BME280;3626;42.656;23.312;2022-07-23T00:07:25;94829.94;;;19.98;59.28
7170;BME280;3626;42.656;23.312;2022-07-23T00:07:31;94829.94;;;19.98;59.28
7170;BME280;3626;42.656;23.312;2022-07-23T00:07:38;94828.91;;;20.00;59.43
7170;BME280;3626;42.656;23.312;2022-07-23T00:07:44;94826.53;;;19.98;59.19
7170;BME280;3626;42.656;23.312;2022-07-23T00:07:49;94829.94;;;19.98;59.29
7170;BME280;3626;42.656;23.312;2022-07-23T00:07:55;94827.31;;;19.98;59.17
7170;BME280;3626;42.656;23.312;2022-07-23T00:08:01;94827.31;;;19.98;59.15
7170;BME280;3626;42.656;23.312;2022-07-23T00:08:07;94828.13;;;19.99;59.10
7170;BME280;3626;42.656;23.312;2022-07-23T00:08:14;94827.56;;;19.97;59.32
7170;BME280;3626;42.656;23.312;2022-07-23T00:08:21;94832.00;;;19.96;59.05
7170;BME280;3626;42.656;23.312;2022-07-23T00:08:27;94824.94;;;19.97;58.97
7170;BME280;3626;42.656;23.312;2022-07-23T00:08:33;94828.56;;;19.96;58.89
7170;BME280;3626;42.656;23.312;2022-07-23T00:08:38;94827.75;;;19.95;59.07
7170;BME280;3626;42.656;23.312;2022-07-23T00:08:44;94820.69;;;19.96;58.80
7170;BME280;3626;42.656;23.312;2022-07-23T00:08:50;94825.13;;;19.95;58.87
7170;BME280;3626;42.656;23.312;2022-07-23T00:08:56;94824.34;;;19.95;58.73
7170;BME280;3626;42.656;23.312;2022-07-23T00:09:02;94830.38;;;19.95;58.74
7170;BME280;3626;42.656;23.312;2022-07-23T00:09:08;94826.97;;;19.95;58.78
7170;BME280;3626;42.656;23.312;2022-07-23T00:09:14;94825.13;;;19.95;58.56
7170;BME280;3626;42.656;23.312;2022-07-23T00:09:19;94826.97;;;19.95;58.65
7170;BME280;3626;42.656;23.312;2022-07-23T00:09:25;94823.53;;;19.94;58.59
7170;BME280;3626;42.656;23.312;2022-07-23T00:09:32;94825.38;;;19.94;58.46
7170;BME280;3626;42.656;23.312;2022-07-23T00:09:37;94829.81;;;19.93;58.50
7170;BME280;3626;42.656;23.312;2022-07-23T00:09:43;94824.56;;;19.93;58.55
7170;BME280;3626;42.656;23.312;2022-07-23T00:09:50;94826.41;;;19.93;58.33
7170;BME280;3626;42.656;23.312;2022-07-23T00:09:56;94825.59;;;19.92;58.47
7170;BME280;3626;42.656;23.312;2022-07-23T00:10:02;94824.78;;;19.92;58.23
7170;BME280;3626;42.656;23.312;2022-07-23T00:10:08;94828.22;;;19.92;58.31
7170;BME280;3626;42.656;23.312;2022-07-23T00:10:14;94827.38;;;19.92;58.14
7170;BME280;3626;42.656;23.312;2022-07-23T00:10:20;94826.59;;;19.91;58.29
7170;BME280;3626;42.656;23.312;2022-07-23T00:10:25;94826.59;;;19.91;58.02
7170;BME280;3626;42.656;23.312;2022-07-23T00:10:31;94826.59;;;19.91;58.13
7170;BME280;3626;42.656;23.312;2022-07-23T00:10:37;94826.59;;;19.91;57.93
7170;BME280;3626;42.656;23.312;2022-07-23T00:10:43;94826.59;;;19.91;58.06
7170;BME280;3626;42.656;23.312;2022-07-23T00:10:49;94825.00;;;19.90;57.91
7170;BME280;3626;42.656;23.312;2022-07-23T00:10:54;94827.63;;;19.90;57.89
7170;BME280;3626;42.656;23.312;2022-07-23T00:11:01;94829.44;;;19.90;57.77
7170;BME280;3626;42.656;23.312;2022-07-23T00:11:07;94824.19;;;19.90;57.72
7170;BME280;3626;42.656;23.312;2022-07-23T00:11:13;94825.78;;;19.91;57.53
7170;BME280;3626;42.656;23.312;2022-07-23T00:11:19;94832.84;;;19.90;57.46
7170;BME280;3626;42.656;23.312;2022-07-23T00:11:24;94831.25;;;19.89;57.62
7170;BME280;3626;42.656;23.312;2022-07-23T00:11:30;94829.66;;;19.88;57.56
7170;BME280;3626;42.656;23.312;2022-07-23T00:11:36;94831.25;;;19.89;57.65
7170;BME280;3626;42.656;23.312;2022-07-23T00:11:42;94832.28;;;19.88;57.45
7170;BME280;3626;42.656;23.312;2022-07-23T00:11:47;94829.66;;;19.88;57.55
7170;BME280;3626;42.656;23.312;2022-07-23T00:11:53;94825.44;;;19.87;57.52
7170;BME280;3626;42.656;23.312;2022-07-23T00:11:59;94832.28;;;19.88;57.49
7170;BME280;3626;42.656;23.312;2022-07-23T00:12:06;94834.91;;;19.88;57.36
7170;BME280;3626;42.656;23.312;2022-07-23T00:12:12;94828.03;;;19.87;57.29
7170;BME280;3626;42.656;23.312;2022-07-23T00:12:17;94832.50;;;19.87;57.37
7170;BME280;3626;42.656;23.312;2022-07-23T00:12:23;94829.66;;;19.88;57.41
7170;BME280;3626;42.656;23.312;2022-07-23T00:12:29;94829.06;;;19.86;57.25
7170;BME280;3626;42.656;23.312;2022-07-23T00:12:35;94829.06;;;19.86;57.28
7170;BME280;3626;42.656;23.312;2022-07-23T00:12:41;94835.91;;;19.87;57.31
7170;BME280;3626;42.656;23.312;2022-07-23T00:12:46;94829.88;;;19.87;57.32
7170;BME280;3626;42.656;23.312;2022-07-23T00:12:52;94829.06;;;19.86;57.39
7170;BME280;3626;42.656;23.312;2022-07-23T00:12:58;94829.06;;;19.86;57.48
7170;BME280;3626;42.656;23.312;2022-07-23T00:13:04;94831.69;;;19.86;57.29
7170;BME280;3626;42.656;23.312;2022-07-23T00:13:09;94826.47;;;19.86;57.30
7170;BME280;3626;42.656;23.312;2022-07-23T00:13:15;94828.28;;;19.86;57.26
7170;BME280;3626;42.656;23.312;2022-07-23T00:13:21;94826.47;;;19.86;57.18
7170;BME280;3626;42.656;23.312;2022-07-23T00:13:28;94832.50;;;19.87;57.38
7170;BME280;3626;42.656;23.312;2022-07-23T00:13:34;94827.47;;;19.85;57.18
7170;BME280;3626;42.656;23.312;2022-07-23T00:13:39;94821.44;;;19.85;57.26
7170;BME280;3626;42.656;23.312;2022-07-23T00:13:45;94827.47;;;19.85;57.22
7170;BME280;3626;42.656;23.312;2022-07-23T00:13:51;94829.31;;;19.85;57.26
7170;BME280;3626;42.656;23.312;2022-07-23T00:13:57;94829.31;;;19.85;57.19
7170;BME280;3626;42.656;23.312;2022-07-23T00:14:03;94831.13;;;19.84;57.04
7170;BME280;3626;42.656;23.312;2022-07-23T00:14:09;94831.91;;;19.85;57.14
7170;BME280;3626;42.656;23.312;2022-07-23T00:14:14;94828.50;;;19.84;57.18
7170;BME280;3626;42.656;23.312;2022-07-23T00:14:20;94831.13;;;19.84;57.06
7170;BME280;3626;42.656;23.312;2022-07-23T00:14:26;94830.31;;;19.84;56.95
7170;BME280;3626;42.656;23.312;2022-07-23T00:14:32;94827.72;;;19.84;56.90
7170;BME280;3626;42.656;23.312;2022-07-23T00:14:37;94831.13;;;19.84;56.91
7170;BME280;3626;42.656;23.312;2022-07-23T00:14:43;94829.50;;;19.83;56.90
7170;BME280;3626;42.656;23.312;2022-07-23T00:14:50;94831.31;;;19.83;56.92
7170;BME280;3626;42.656;23.312;2022-07-23T00:14:56;94829.50;;;19.83;56.90
7170;BME280;3626;42.656;23.312;2022-07-23T00:15:02;94832.34;;;19.82;56.85
7170;BME280;3626;42.656;23.312;2022-07-23T00:15:09;94835.75;;;19.82;56.90
7170;BME280;3626;42.656;23.312;2022-07-23T00:15:15;94830.53;;;19.82;57.02
7170;BME280;3626;42.656;23.312;2022-07-23T00:15:21;94835.75;;;19.82;56.97
7170;BME280;3626;42.656;23.312;2022-07-23T00:15:26;94829.97;;;19.80;56.87
7170;BME280;3626;42.656;23.312;2022-07-23T00:15:32;94836.78;;;19.81;57.08
7170;BME280;3626;42.656;23.312;2022-07-23T00:15:38;94839.41;;;19.81;56.95
7170;BME280;3626;42.656;23.312;2022-07-23T00:15:44;94831.78;;;19.80;57.04
7170;BME280;3626;42.656;23.312;2022-07-23T00:15:50;94834.41;;;19.80;56.97
7170;BME280;3626;42.656;23.312;2022-07-23T00:15:55;94837.03;;;19.80;56.95
7170;BME280;3626;42.656;23.312;2022-07-23T00:16:01;94836.41;;;19.78;56.97
7170;BME280;3626;42.656;23.312;2022-07-23T00:16:08;94833.00;;;19.77;57.18
7170;BME280;3626;42.656;23.312;2022-07-23T00:16:15;94833.56;;;19.79;57.20
7170;BME280;3626;42.656;23.312;2022-07-23T00:16:20;94835.63;;;19.77;57.28
7170;BME280;3626;42.656;23.312;2022-07-23T00:16:26;94830.38;;;19.77;57.28
7170;BME280;3626;42.656;23.312;2022-07-23T00:16:32;94833.00;;;19.77;57.30
7170;BME280;3626;42.656;23.312;2022-07-23T00:16:38;94830.63;;;19.76;57.44
7170;BME280;3626;42.656;23.312;2022-07-23T00:16:44;94834.03;;;19.76;57.56
7170;BME280;3626;42.656;23.312;2022-07-23T00:16:49;94835.84;;;19.76;57.52
7170;BME280;3626;42.656;23.312;2022-07-23T00:16:55;94836.84;;;19.75;57.52
7170;BME280;3626;42.656;23.312;2022-07-23T00:17:01;94837.66;;;19.75;57.49
7170;BME280;3626;42.656;23.312;2022-07-23T00:17:07;94829.22;;;19.73;57.52
7170;BME280;3626;42.656;23.312;2022-07-23T00:17:12;94830.00;;;19.73;57.45
7170;BME280;3626;42.656;23.312;2022-07-23T00:17:18;94834.47;;;19.73;57.31
7170;BME280;3626;42.656;23.312;2022-07-23T00:17:24;94831.03;;;19.72;57.38
7170;BME280;3626;42.656;23.312;2022-07-23T00:17:29;94834.47;;;19.73;57.37
7170;BME280;3626;42.656;23.312;2022-07-23T00:17:35;94829.22;;;19.73;57.38
7170;BME280;3626;42.656;23.312;2022-07-23T00:17:42;94830.00;;;19.73;57.19
7170;BME280;3626;42.656;23.312;2022-07-23T00:17:48;94828.41;;;19.72;57.19
7170;BME280;3626;42.656;23.312;2022-07-23T00:17:54;94838.91;;;19.72;57.25
7170;BME280;3626;42.656;23.312;2022-07-23T00:17:59;94837.06;;;19.73;57.08
7170;BME280;3626;42.656;23.312;2022-07-23T00:18:05;94833.66;;;19.72;57.13
7170;BME280;3626;42.656;23.312;2022-07-23T00:18:11;94828.41;;;19.72;57.18
7170;BME280;3626;42.656;23.312;2022-07-23T00:18:16;94829.22;;;19.73;57.08
7170;BME280;3626;42.656;23.312;2022-07-23T00:18:22;94832.88;;;19.72;56.93
7170;BME280;3626;42.656;23.312;2022-07-23T00:18:28;94833.66;;;19.72;56.96
7170;BME280;3626;42.656;23.312;2022-07-23T00:18:34;94835.47;;;19.72;56.94
7170;BME280;3626;42.656;23.312;2022-07-23T00:18:40;94833.66;;;19.72;56.96
7170;BME280;3626;42.656;23.312;2022-07-23T00:18:45;94835.47;;;19.72;56.86
7170;BME280;3626;42.656;23.312;2022-07-23T00:18:51;94832.06;;;19.71;56.82
7170;BME280;3626;42.656;23.312;2022-07-23T00:18:57;94832.88;;;19.72;56.87
7170;BME280;3626;42.656;23.312;2022-07-23T00:19:03;94830.25;;;19.72;56.87
7170;BME280;3626;42.656;23.312;2022-07-23T00:19:09;94836.50;;;19.71;56.83
7170;BME280;3626;42.656;23.312;2022-07-23T00:19:15;94830.25;;;19.72;56.82
7170;BME280;3626;42.656;23.312;2022-07-23T00:19:21;94830.25;;;19.72;56.73
7170;BME280;3626;42.656;23.312;2022-07-23T00:19:27;94838.09;;;19.72;56.81
7170;BME280;3626;42.656;23.312;2022-07-23T00:19:34;94832.06;;;19.71;56.93
7170;BME280;3626;42.656;23.312;2022-07-23T00:19:40;94833.06;;;19.70;56.80
7170;BME280;3626;42.656;23.312;2022-07-23T00:19:45;94835.69;;;19.70;56.74
7170;BME280;3626;42.656;23.312;2022-07-23T00:19:51;94833.88;;;19.71;56.82
7170;BME280;3626;42.656;23.312;2022-07-23T00:19:59;94839.13;;;19.71;56.83
7170;BME280;3626;42.656;23.312;2022-07-23T00:20:06;94834.09;;;19.69;56.66
7170;BME280;3626;42.656;23.312;2022-07-23T00:20:12;94838.28;;;19.70;56.87
7170;BME280;3626;42.656;23.312;2022-07-23T00:20:18;94831.28;;;19.71;56.86
7170;BME280;3626;42.656;23.312;2022-07-23T00:20:24;94835.69;;;19.70;56.65
7170;BME280;3626;42.656;23.312;2022-07-23T00:20:29;94836.50;;;19.71;56.78
7170;BME280;3626;42.656;23.312;2022-07-23T00:20:35;94840.72;;;19.72;56.78
7170;BME280;3626;42.656;23.312;2022-07-23T00:20:42;94833.88;;;19.71;56.87
7170;BME280;3626;42.656;23.312;2022-07-23T00:20:48;94832.88;;;19.72;56.81
7170;BME280;3626;42.656;23.312;2022-07-23T00:20:53;94829.44;;;19.71;56.67
7170;BME280;3626;42.656;23.312;2022-07-23T00:20:59;94834.69;;;19.71;56.67
7170;BME280;3626;42.656;23.312;2022-07-23T00:21:05;94832.88;;;19.72;56.78
7170;BME280;3626;42.656;23.312;2022-07-23T00:21:11;94835.47;;;19.72;56.71
7170;BME280;3626;42.656;23.312;2022-07-23T00:21:16;94835.69;;;19.70;56.61
7170;BME280;3626;42.656;23.312;2022-07-23T00:21:22;94835.69;;;19.70;56.75
7170;BME280;3626;42.656;23.312;2022-07-23T00:21:28;94831.28;;;19.71;56.81
7170;BME280;3626;42.656;23.312;2022-07-23T00:21:34;94838.09;;;19.72;56.88
7170;BME280;3626;42.656;23.312;2022-07-23T00:21:39;94839.91;;;19.71;56.86
7170;BME280;3626;42.656;23.312;2022-07-23T00:21:45;94833.28;;;19.69;56.79
7170;BME280;3626;42.656;23.312;2022-07-23T00:21:51;94833.88;;;19.71;56.79
7170;BME280;3626;42.656;23.312;2022-07-23T00:21:57;94837.50;;;19.70;56.88
7170;BME280;3626;42.656;23.312;2022-07-23T00:22:02;94835.69;;;19.70;56.79
7170;BME280;3626;42.656;23.312;2022-07-23T00:22:09;94836.94;;;19.68;56.77
7170;BME280;3626;42.656;23.312;2022-07-23T00:22:15;94834.31;;;19.68;57.00
7170;BME280;3626;42.656;23.312;2022-07-23T00:22:21;94836.94;;;19.68;56.96
7170;BME280;3626;42.656;23.312;2022-07-23T00:22:27;94837.72;;;19.68;56.99
7170;BME280;3626;42.656;23.312;2022-07-23T00:22:34;94838.53;;;19.69;56.93
7170;BME280;3626;42.656;23.312;2022-07-23T00:22:46;94836.94;;;19.68;57.09
7170;BME280;3626;42.656;23.312;2022-07-23T00:22:53;94836.13;;;19.67;56.98
7170;BME280;3626;42.656;23.312;2022-07-23T00:23:00;94832.72;;;19.67;56.94
7170;BME280;3626;42.656;23.312;2022-07-23T00:23:05;94835.34;;;19.67;56.97
7170;BME280;3626;42.656;23.312;2022-07-23T00:23:11;94841.56;;;19.66;56.91
7170;BME280;3626;42.656;23.312;2022-07-23T00:23:18;94838.94;;;19.66;56.98
7170;BME280;3626;42.656;23.312;2022-07-23T00:23:24;94835.34;;;19.67;56.97
7170;BME280;3626;42.656;23.312;2022-07-23T00:23:30;94841.56;;;19.66;56.99
7170;BME280;3626;42.656;23.312;2022-07-23T00:23:37;94834.75;;;19.65;56.91
7170;BME280;3626;42.656;23.312;2022-07-23T00:23:42;94839.97;;;19.65;57.07
7170;BME280;3626;42.656;23.312;2022-07-23T00:23:48;94837.13;;;19.66;57.16
7170;BME280;3626;42.656;23.312;2022-07-23T00:23:54;94838.94;;;19.66;57.05
7170;BME280;3626;42.656;23.312;2022-07-23T00:24:00;94837.13;;;19.66;57.06
7170;BME280;3626;42.656;23.312;2022-07-23T00:24:06;94839.97;;;19.65;56.92
7170;BME280;3626;42.656;23.312;2022-07-23T00:24:11;94844.19;;;19.66;57.09
7170;BME280;3626;42.656;23.312;2022-07-23T00:24:17;94838.16;;;19.65;57.03
7170;BME280;3626;42.656;23.312;2022-07-23T00:24:23;94841.56;;;19.66;57.01
7170;BME280;3626;42.656;23.312;2022-07-23T00:24:29;94844.19;;;19.66;57.04
7170;BME280;3626;42.656;23.312;2022-07-23T00:24:34;94832.13;;;19.65;57.16
7170;BME280;3626;42.656;23.312;2022-07-23T00:24:40;94842.38;;;19.66;57.08
7170;BME280;3626;42.656;23.312;2022-07-23T00:24:46;94843.41;;;19.65;56.95
7170;BME280;3626;42.656;23.312;2022-07-23T00:24:53;94838.94;;;19.66;57.15
7170;BME280;3626;42.656;23.312;2022-07-23T00:24:58;94841.00;;;19.64;57.13
7170;BME280;3626;42.656;23.312;2022-07-23T00:25:04;94835.75;;;19.64;57.16
7170;BME280;3626;42.656;23.312;2022-07-23T00:25:10;94835.75;;;19.64;57.12
7170;BME280;3626;42.656;23.312;2022-07-23T00:25:16;94835.75;;;19.64;57.19
7170;BME280;3626;42.656;23.312;2022-07-23T00:25:23;94843.63;;;19.64;57.18
7170;BME280;3626;42.656;23.312;2022-07-23T00:25:28;94838.38;;;19.64;57.20
7170;BME280;3626;42.656;23.312;2022-07-23T00:25:34;94838.38;;;19.64;57.08
7170;BME280;3626;42.656;23.312;2022-07-23T00:25:40;94839.19;;;19.64;57.10
7170;BME280;3626;42.656;23.312;2022-07-23T00:25:46;94835.75;;;19.64;57.12
7170;BME280;3626;42.656;23.312;2022-07-23T00:25:51;94839.41;;;19.63;57.12
7170;BME280;3626;42.656;23.312;2022-07-23T00:25:57;94837.78;;;19.62;57.28
7170;BME280;3626;42.656;23.312;2022-07-23T00:26:04;94838.56;;;19.62;57.17
7170;BME280;3626;42.656;23.312;2022-07-23T00:26:09;94844.63;;;19.63;57.30
7170;BME280;3626;42.656;23.312;2022-07-23T00:26:16;94835.97;;;19.62;57.38
7170;BME280;3626;42.656;23.312;2022-07-23T00:26:22;94842.22;;;19.61;57.24
7170;BME280;3626;42.656;23.312;2022-07-23T00:26:27;94833.56;;;19.61;57.22
7170;BME280;3626;42.656;23.312;2022-07-23T00:26:33;94841.44;;;19.61;57.38
7170;BME280;3626;42.656;23.312;2022-07-23T00:26:39;94849.28;;;19.61;57.34
7170;BME280;3626;42.656;23.312;2022-07-23T00:26:45;94839.81;;;19.60;57.51
7170;BME280;3626;42.656;23.312;2022-07-23T00:26:51;94837.97;;;19.60;57.50
7170;BME280;3626;42.656;23.312;2022-07-23T00:26:56;94833.56;;;19.61;57.52
7170;BME280;3626;42.656;23.312;2022-07-23T00:27:02;94833.56;;;19.61;57.55
7170;BME280;3626;42.656;23.312;2022-07-23T00:27:09;94844.03;;;19.61;57.58
7170;BME280;3626;42.656;23.312;2022-07-23T00:27:14;94849.28;;;19.61;57.58
7170;BME280;3626;42.656;23.312;2022-07-23T00:27:20;94846.84;;;19.59;57.56
7170;BME280;3626;42.656;23.312;2022-07-23T00:27:26;94839.00;;;19.59;57.75
7170;BME280;3626;42.656;23.312;2022-07-23T00:27:32;94846.06;;;19.59;57.66
7170;BME280;3626;42.656;23.312;2022-07-23T00:27:38;94845.25;;;19.58;57.68
7170;BME280;3626;42.656;23.312;2022-07-23T00:27:43;94837.41;;;19.58;57.79
7170;BME280;3626;42.656;23.312;2022-07-23T00:27:49;94848.69;;;19.59;57.87
7170;BME280;3626;42.656;23.312;2022-07-23T00:27:56;94846.06;;;19.59;57.85
7170;BME280;3626;42.656;23.312;2022-07-23T00:28:03;94847.06;;;19.58;57.74
7170;BME280;3626;42.656;23.312;2022-07-23T00:28:08;94842.84;;;19.57;58.01
7170;BME280;3626;42.656;23.312;2022-07-23T00:28:14;94836.59;;;19.58;57.83
7170;BME280;3626;42.656;23.312;2022-07-23T00:28:20;94846.25;;;19.57;58.00
7170;BME280;3626;42.656;23.312;2022-07-23T00:28:26;94848.06;;;19.57;57.95
7170;BME280;3626;42.656;23.312;2022-07-23T00:28:32;94845.47;;;19.57;58.04
7170;BME280;3626;42.656;23.312;2022-07-23T00:28:37;94841.03;;;19.57;57.89
7170;BME280;3626;42.656;23.312;2022-07-23T00:28:43;94851.28;;;19.59;57.87
7170;BME280;3626;42.656;23.312;2022-07-23T00:28:49;94841.81;;;19.58;58.07
7170;BME280;3626;42.656;23.312;2022-07-23T00:28:54;94842.66;;;19.58;57.90
7170;BME280;3626;42.656;23.312;2022-07-23T00:29:00;94854.72;;;19.59;58.00
7170;BME280;3626;42.656;23.312;2022-07-23T00:29:06;94842.66;;;19.58;58.01
7170;BME280;3626;42.656;23.312;2022-07-23T00:29:12;94848.88;;;19.57;58.00
7170;BME280;3626;42.656;23.312;2022-07-23T00:29:17;94845.25;;;19.58;58.13
7170;BME280;3626;42.656;23.312;2022-07-23T00:29:24;94844.44;;;19.58;58.22
7170;BME280;3626;42.656;23.312;2022-07-23T00:29:30;94844.44;;;19.58;58.10
7170;BME280;3626;42.656;23.312;2022-07-23T00:29:36;94845.47;;;19.57;58.23
7170;BME280;3626;42.656;23.312;2022-07-23T00:29:42;94852.28;;;19.58;58.18
7170;BME280;3626;42.656;23.312;2022-07-23T00:29:47;94854.34;;;19.56;58.28
7170;BME280;3626;42.656;23.312;2022-07-23T00:29:53;94852.75;;;19.55;58.47
7170;BME280;3626;42.656;23.312;2022-07-23T00:29:59;94845.69;;;19.55;58.36
7170;BME280;3626;42.656;23.312;2022-07-23T00:30:05;94845.69;;;19.55;58.46
7170;BME280;3626;42.656;23.312;2022-07-23T00:30:13;94850.94;;;19.55;58.49
7170;BME280;3626;42.656;23.312;2022-07-23T00:30:19;94853.53;;;19.55;58.54
7170;BME280;3626;42.656;23.312;2022-07-23T00:30:25;94849.09;;;19.56;58.59
7170;BME280;3626;42.656;23.312;2022-07-23T00:30:31;94850.69;;;19.57;58.60
7170;BME280;3626;42.656;23.312;2022-07-23T00:30:37;94851.72;;;19.56;58.55
7170;BME280;3626;42.656;23.312;2022-07-23T00:30:44;94845.47;;;19.57;58.42
7170;BME280;3626;42.656;23.312;2022-07-23T00:30:50;94849.09;;;19.56;58.63
7170;BME280;3626;42.656;23.312;2022-07-23T00:30:56;94847.50;;;19.55;58.62
7170;BME280;3626;42.656;23.312;2022-07-23T00:31:01;94843.28;;;19.54;58.62
7170;BME280;3626;42.656;23.312;2022-07-23T00:31:07;94850.94;;;19.55;58.68
7170;BME280;3626;42.656;23.312;2022-07-23T00:31:13;94845.88;;;19.54;58.60
7170;BME280;3626;42.656;23.312;2022-07-23T00:31:19;94844.88;;;19.55;58.66
7170;BME280;3626;42.656;23.312;2022-07-23T00:31:25;94850.13;;;19.55;58.60
7170;BME280;3626;42.656;23.312;2022-07-23T00:31:30;94845.88;;;19.54;58.64
7170;BME280;3626;42.656;23.312;2022-07-23T00:31:37;94847.50;;;19.55;58.70
7170;BME280;3626;42.656;23.312;2022-07-23T00:31:43;94848.31;;;19.55;58.72
7170;BME280;3626;42.656;23.312;2022-07-23T00:31:49;94848.50;;;19.54;58.56
7170;BME280;3626;42.656;23.312;2022-07-23T00:31:55;94851.94;;;19.54;58.75
7170;BME280;3626;42.656;23.312;2022-07-23T00:32:00;94848.50;;;19.54;58.70